Fayette, MO (65248)

10:02 PM CDT on September 15, 2014 (GMT -0500)
Viertel Memorial | Change Station
CLOSE
Current Station
Airport
Location: Boonville,
Elevation: 715 ft
Nearby Weather Stations
Active Advisory: Flood Warning

Elev 715 ft 38.95 °N, 92.68 °W | Updated 27 minutes ago

Overcast
Overcast
61 °F
Feels Like 61 °F
N
7
Wind Variable Wind from North

Today
High -- | Low -- °F
--% Chance of Precip.
Yesterday
High -- | Low -- °F
Precip. -- in
6:52 AM 7:19 PM
Waning Gibbous, 50% visible
Pressure 30.19 in
Visibility 10.0 miles
Clouds Overcast 1400 ft
Dew Point 57 °F
Humidity 85%
Rainfall 0.00 in
Snow Depth Not available.
UV 0 out of 12
Pollen 5.00 out of 12
Air Quality Not available.
Flu Activity Not available.
METAR KVER 160235Z AUTO 35006KT 10SM OVC014 16/14 A3019 RMK AO2 T01630138

More Conditions Fewer Conditions

Pressure 30.19 in
Visibility 10.0 miles
Clouds Overcast 1400 ft
Dew Point 57 °F
Humidity 85%
Rainfall 0.00 in
Snow Depth Not available.
UV 0 out of 12
Pollen 5.00 out of 12
Air Quality Not available.
Flu Activity Not available.
METAR KVER 160235Z AUTO 35006KT 10SM OVC014 16/14 A3019 RMK AO2 T01630138

More Conditions Fewer Conditions

10-Day Weather Forecast

Almanac

Astronomy

Sep. 15, 2014 Rise Set
Actual Time 6:52 AM CDT 7:19 PM CDT
Civil Twilight 6:25 AM CDT 7:45 PM CDT
Nautical Twilight 5:53 AM CDT 8:17 PM CDT
Astronomical Twilight 5:21 AM CDT 8:49 PM CDT
Moon No Moon Rise 1:50 PM CDT (9/15)
Length of Visible Light 13h 20m
Length of Day
12h 27m
Tomorrow will be 2m 31s shorter.
Waning Gibbous, 50% of the Moon is Illuminated
Today
Waning Gibbous
Sep 24
New
Oct 1
First Quarter
Oct 8
Full
Oct 15
Last Quarter

Today's Extremes

State Highs State Lows

Community

WunderPhotos

Upload Photos

1,753,689 photos uploaded!

Nearby

Snow Depth

Station Depth Elevation
No new snow has been reported.

Earthquake Activity

City Distance Mag. Time & Date
No recent earthquake activity has been reported nearby.
Minimum magnitude displayed is 2.5.

Coastal Water Temperatures

Place Temperature
No Stations Reporting

Nearby Weather Stations